Time;durP1;ratioP1;P1;durP2;ratioP2;P2;SDS_P1;SDS_P2;PMS_P1;PMS_P2;Temp;Humidity;BMP_temperature;BMP_pressure;BME280_temperature;BME280_humidity;BME280_pressure;Samples;Min_cycle;Max_cycle;Signal;HPM_P1;HPM_P2
2021/12/07 00:01:48;;;;;;;0.20;0.10;;;;;;;4.22;100.00;99362.00;5053301;28;20500;-47
2021/12/07 00:04:16;;;;;;;0.20;0.10;;;;;;;4.22;100.00;99371.66;5053612;28;20454;-47
2021/12/07 00:06:43;;;;;;;0.20;0.10;;;;;;;4.19;100.00;99359.44;5053071;28;20494;-47
2021/12/07 00:09:12;;;;;;;0.20;0.10;;;;;;;4.06;100.00;99361.41;5052893;28;21069;-47
2021/12/07 00:11:39;;;;;;;0.20;0.10;;;;;;;4.22;100.00;99361.13;5052469;28;20867;-47
2021/12/07 00:14:12;;;;;;;0.20;0.10;;;;;;;4.22;100.00;99361.13;5052516;28;20446;-48
2021/12/07 00:16:41;;;;;;;0.20;0.10;;;;;;;4.26;100.00;99363.72;5052485;28;20450;-47
2021/12/07 00:19:10;;;;;;;0.20;0.10;;;;;;;4.27;100.00;99354.91;5051230;28;20517;-48
2021/12/07 00:21:39;;;;;;;0.20;0.10;;;;;;;4.27;100.00;99354.06;5040230;28;20509;-48
2021/12/07 00:24:06;;;;;;;0.20;0.10;;;;;;;4.53;100.00;99357.06;5051583;28;20498;-48
2021/12/07 00:26:37;;;;;;;0.20;0.10;;;;;;;4.28;100.00;99353.16;5052243;28;21007;-48
2021/12/07 00:29:05;;;;;;;0.20;0.10;;;;;;;4.43;100.00;99348.47;5052480;28;20517;-48
2021/12/07 00:31:40;;;;;;;0.20;0.10;;;;;;;4.45;100.00;99351.06;5052109;28;20457;-48
2021/12/07 00:34:19;;;;;;;0.20;0.10;;;;;;;4.47;100.00;99338.75;5051805;28;20453;-47
2021/12/07 00:36:48;;;;;;;0.20;0.10;;;;;;;4.76;100.00;99340.78;5039465;28;20505;-47
2021/12/07 00:39:19;;;;;;;0.20;0.10;;;;;;;4.50;100.00;99343.06;5051868;28;20482;-48
2021/12/07 00:41:47;;;;;;;0.20;0.10;;;;;;;4.34;100.00;99346.00;5052007;28;20447;-48
2021/12/07 00:44:15;;;;;;;0.20;0.10;;;;;;;4.50;100.00;99343.06;5039937;28;20508;-48
2021/12/07 00:46:43;;;;;;;0.20;0.10;;;;;;;4.36;100.00;99344.22;5052096;28;20497;-48
2021/12/07 00:49:10;;;;;;;0.20;0.10;;;;;;;4.32;100.00;99334.66;5043494;28;20468;-47
2021/12/07 00:51:37;;;;;;;0.20;0.10;;;;;;;4.38;100.00;99338.91;5047334;28;20878;-47
2021/12/07 00:54:04;;;;;;;0.20;0.10;;;;;;;4.33;100.00;99335.50;5052040;28;20451;-48
2021/12/07 00:56:32;;;;;;;0.20;0.10;;;;;;;4.43;100.00;99335.31;5052235;28;20442;-47
2021/12/07 00:58:58;;;;;;;0.20;0.10;;;;;;;4.30;100.00;99325.06;5051650;28;20479;-46
2021/12/07 01:01:25;;;;;;;0.57;0.57;;;;;;;4.51;100.00;99332.53;5051838;28;20454;-46
2021/12/07 01:03:52;;;;;;;0.20;0.20;;;;;;;4.25;100.00;99330.41;5051762;28;20447;-46
2021/12/07 01:25:16;;;;;;;0.20;0.10;;;;;;;4.30;100.00;99328.56;5051702;28;20807;-47
2021/12/07 01:27:45;;;;;;;0.20;0.10;;;;;;;4.68;100.00;99351.50;5051534;28;20509;-46
2021/12/07 01:30:20;;;;;;;0.20;0.10;;;;;;;4.50;100.00;99345.72;5051384;28;20471;-47
2021/12/07 01:51:45;;;;;;;0.20;0.10;;;;;;;4.69;100.00;99374.28;5048774;28;20443;-47
2021/12/07 01:59:52;;;;;;;0.20;0.10;;;;;;;4.56;100.00;99359.63;5054441;28;20501;-47
2021/12/07 02:02:22;;;;;;;0.20;0.10;;;;;;;4.63;100.00;99360.38;5054602;28;20451;-47
2021/12/07 02:04:49;;;;;;;0.20;0.10;;;;;;;4.62;100.00;99363.91;5054456;28;20446;-47
2021/12/07 02:07:16;;;;;;;0.20;0.10;;;;;;;4.67;100.00;99373.44;5054570;28;20556;-47
2021/12/07 02:09:47;;;;;;;0.20;0.10;;;;;;;4.58;100.00;99372.75;5054258;28;20466;-47
2021/12/07 02:12:14;;;;;;;0.20;0.10;;;;;;;4.77;100.00;99366.22;5054827;28;20443;-47
2021/12/07 02:14:42;;;;;;;0.20;0.10;;;;;;;4.60;100.00;99366.56;5053311;28;20508;-47
2021/12/07 02:17:14;;;;;;;0.20;0.10;;;;;;;4.59;100.00;99371.84;5054571;28;20874;-47
2021/12/07 02:19:41;;;;;;;0.20;0.10;;;;;;;4.68;100.00;99369.91;5048790;28;20467;-48
2021/12/07 02:22:10;;;;;;;0.20;0.10;;;;;;;4.74;100.00;99364.53;5046547;28;20479;-48
2021/12/07 02:24:37;;;;;;;0.20;0.10;;;;;;;4.76;100.00;99370.63;5052835;28;20512;-48
2021/12/07 02:27:04;;;;;;;0.30;0.27;;;;;;;4.76;100.00;99377.66;5054203;28;21073;-48
2021/12/07 02:29:31;;;;;;;0.20;0.10;;;;;;;5.06;100.00;99379.66;5053882;28;20979;-48
2021/12/07 02:31:59;;;;;;;0.20;0.10;;;;;;;5.01;100.00;99381.53;5054074;28;20500;-47
2021/12/07 02:34:26;;;;;;;0.20;0.10;;;;;;;4.94;100.00;99382.56;5042922;28;20447;-48
2021/12/07 02:36:54;;;;;;;0.20;0.10;;;;;;;4.98;100.00;99386.84;5040580;28;20885;-47
2021/12/07 02:39:30;;;;;;;0.20;0.10;;;;;;;5.09;100.00;99389.28;5053981;28;20490;-48
2021/12/07 02:41:56;;;;;;;0.20;0.10;;;;;;;5.02;100.00;99398.19;5051814;28;20469;-48
2021/12/07 02:44:23;;;;;;;0.20;0.20;;;;;;;5.23;100.00;99404.78;5042643;28;20450;-48
2021/12/07 02:46:50;;;;;;;0.20;0.10;;;;;;;5.16;100.00;99411.94;5052888;28;20482;-48
2021/12/07 02:49:16;;;;;;;0.20;0.10;;;;;;;5.21;100.00;99414.50;5044797;28;20463;-48
2021/12/07 02:51:43;;;;;;;0.20;0.10;;;;;;;5.19;100.00;99405.72;5048970;28;20505;-48
2021/12/07 02:54:10;;;;;;;0.20;0.10;;;;;;;5.23;100.00;99416.19;5053876;28;20508;-48
2021/12/07 02:56:36;;;;;;;0.20;0.10;;;;;;;5.22;100.00;99419.72;5053655;28;20449;-48
2021/12/07 02:59:04;;;;;;;0.20;0.10;;;;;;;5.27;100.00;99417.00;5053677;28;20810;-47
2021/12/07 03:01:36;;;;;;;0.20;0.10;;;;;;;5.15;100.00;99422.50;5053502;28;20447;-48
2021/12/07 03:04:10;;;;;;;0.20;0.10;;;;;;;5.27;100.00;99417.84;5053587;28;20542;-48
2021/12/07 03:07:14;;;;;;;0.20;0.10;;;;;;;5.30;100.00;99428.31;5053480;28;20904;-47
2021/12/07 03:26:11;;;;;;;0.20;0.10;;;;;;;5.36;100.00;99464.22;5051712;28;20520;-48
2021/12/07 03:28:47;;;;;;;0.20;0.10;;;;;;;5.37;100.00;99465.97;5052898;28;20544;-48
2021/12/07 03:31:16;;;;;;;0.20;0.10;;;;;;;5.50;100.00;99471.84;5052930;28;20519;-47
2021/12/07 03:33:44;;;;;;;0.20;0.10;;;;;;;5.44;100.00;99471.97;5052841;28;20451;-49
2021/12/07 03:36:12;;;;;;;0.20;0.10;;;;;;;5.33;100.00;99473.03;5045046;28;20455;-48
2021/12/07 03:38:40;;;;;;;0.20;0.20;;;;;;;5.34;100.00;99476.53;5047700;28;20467;-47
2021/12/07 03:41:07;;;;;;;0.20;0.20;;;;;;;5.34;100.00;99484.44;5052838;28;21172;-47
2021/12/07 03:43:35;;;;;;;0.20;0.10;;;;;;;5.33;100.00;99488.84;5039206;28;20464;-47
2021/12/07 03:46:03;;;;;;;0.20;0.13;;;;;;;5.41;100.00;99493.97;5052677;28;20493;-48
2021/12/07 03:48:29;;;;;;;0.20;0.10;;;;;;;5.31;100.00;99497.69;5049709;28;21014;-48
2021/12/07 03:50:56;;;;;;;0.20;0.10;;;;;;;5.19;100.00;99503.19;5042623;28;20447;-48
2021/12/07 03:53:23;;;;;;;0.20;0.10;;;;;;;5.21;100.00;99504.06;5052638;28;20454;-47
2021/12/07 03:55:50;;;;;;;0.20;0.10;;;;;;;5.46;100.00;99513.19;5052466;28;20451;-47
2021/12/07 03:58:16;;;;;;;0.20;0.20;;;;;;;5.41;100.00;99512.44;5067651;28;20525;-48
2021/12/07 04:00:46;;;;;;;0.20;0.10;;;;;;;5.27;100.00;99519.75;5052699;28;20501;-48
2021/12/07 04:03:16;;;;;;;0.20;0.10;;;;;;;5.38;100.00;99517.75;5052413;28;20450;-47
2021/12/07 04:05:48;;;;;;;0.20;0.10;;;;;;;5.25;100.00;99522.41;5052418;28;20886;-48
2021/12/07 04:08:23;;;;;;;0.20;0.20;;;;;;;5.20;100.00;99528.63;5052399;28;20438;-48
2021/12/07 04:10:51;;;;;;;0.20;0.10;;;;;;;5.24;100.00;99532.97;5052596;28;20442;-47
2021/12/07 04:13:18;;;;;;;0.20;0.10;;;;;;;5.23;100.00;99533.88;5032516;28;20456;-47
2021/12/07 04:15:45;;;;;;;0.20;0.10;;;;;;;5.31;100.00;99539.84;5045623;28;20446;-48
2021/12/07 04:18:12;;;;;;;0.20;0.10;;;;;;;5.28;100.00;99538.16;5052375;28;20520;-47
2021/12/07 04:20:38;;;;;;;0.20;0.10;;;;;;;5.26;100.00;99539.09;5038763;28;21011;-47
2021/12/07 04:23:06;;;;;;;0.20;0.10;;;;;;;5.24;100.00;99549.66;5052029;28;20510;-48
2021/12/07 04:25:33;;;;;;;0.20;0.10;;;;;;;5.30;100.00;99552.16;5051970;28;20446;-48
2021/12/07 04:28:00;;;;;;;0.20;0.10;;;;;;;5.41;100.00;99554.59;5052277;28;20486;-47
2021/12/07 04:30:32;;;;;;;0.20;0.10;;;;;;;5.35;100.00;99557.34;5052085;28;20528;-48
2021/12/07 04:33:00;;;;;;;0.20;0.10;;;;;;;5.41;100.00;99551.09;5052204;28;20501;-48
2021/12/07 04:35:28;;;;;;;0.20;0.20;;;;;;;5.35;100.00;99550.31;5049934;28;20504;-47
2021/12/07 04:37:56;;;;;;;0.20;0.10;;;;;;;5.37;100.00;99558.19;5040756;28;20815;-48
2021/12/07 04:40:26;;;;;;;0.20;0.10;;;;;;;5.24;100.00;99562.81;5051939;28;20576;-48
2021/12/07 04:42:54;;;;;;;0.20;0.20;;;;;;;5.24;100.00;99564.59;5042705;28;20817;-47
2021/12/07 04:45:34;;;;;;;0.20;0.10;;;;;;;5.27;100.00;99569.78;5048659;28;20500;-48
2021/12/07 04:48:31;;;;;;;0.20;0.10;;;;;;;5.27;100.00;99568.03;5052195;28;20486;-47
2021/12/07 04:59:17;;;;;;;0.20;0.10;;;;;;;5.17;100.00;99595.44;5051838;28;20959;-48
2021/12/07 05:01:45;;;;;;;0.20;0.10;;;;;;;5.17;100.00;99600.69;5051796;28;20489;-48
2021/12/07 05:04:17;;;;;;;0.73;0.70;;;;;;;5.20;100.00;99608.53;5051730;28;20461;-48
2021/12/07 05:06:50;;;;;;;0.20;0.10;;;;;;;5.19;100.00;99604.16;5051583;28;20483;-48
2021/12/07 05:14:35;;;;;;;0.20;0.10;;;;;;;5.16;100.00;99622.66;5051881;28;20541;-47
2021/12/07 05:39:35;;;;;;;0.20;0.10;;;;;;;5.16;100.00;99627.06;5035646;28;20880;-49
2021/12/07 05:42:02;;;;;;;0.20;0.10;;;;;;;5.18;100.00;99641.09;5048468;28;20517;-48
2021/12/07 05:44:28;;;;;;;0.20;0.10;;;;;;;5.18;100.00;99643.72;5044764;28;20512;-48
2021/12/07 05:46:55;;;;;;;0.20;0.10;;;;;;;5.25;100.00;99642.72;5054694;28;20540;-49
2021/12/07 05:49:22;;;;;;;0.20;0.10;;;;;;;5.23;100.00;99660.34;5045120;28;20562;-49
2021/12/07 05:51:49;;;;;;;0.20;0.20;;;;;;;5.21;100.00;99664.75;5051350;28;20892;-49
2021/12/07 05:54:16;;;;;;;0.20;0.10;;;;;;;5.31;100.00;99661.91;5054814;28;20458;-48
2021/12/07 05:56:42;;;;;;;0.20;0.10;;;;;;;5.34;100.00;99668.91;5054649;28;20521;-48
2021/12/07 05:59:09;;;;;;;0.20;0.10;;;;;;;5.25;100.00;99667.31;5054804;28;20474;-48
2021/12/07 06:01:35;;;;;;;0.20;0.10;;;;;;;5.16;100.00;99669.22;5054395;28;20451;-48
2021/12/07 06:04:02;;;;;;;0.20;0.10;;;;;;;5.17;100.00;99674.47;5054592;28;20454;-48
2021/12/07 06:06:29;;;;;;;0.20;0.10;;;;;;;5.15;100.00;99675.38;5054357;28;20455;-48
2021/12/07 06:08:56;;;;;;;0.20;0.10;;;;;;;5.21;100.00;99677.94;5054396;28;20980;-48
2021/12/07 06:11:24;;;;;;;0.20;0.10;;;;;;;5.24;100.00;99676.13;5054227;28;20508;-48
2021/12/07 06:13:52;;;;;;;0.20;0.10;;;;;;;5.19;100.00;99684.97;5054318;28;20940;-48
2021/12/07 06:16:19;;;;;;;0.20;0.10;;;;;;;5.19;100.00;99684.97;5054344;28;20447;-48
2021/12/07 06:18:46;;;;;;;0.20;0.10;;;;;;;5.22;100.00;99684.94;5054402;28;20477;-48
2021/12/07 06:21:13;;;;;;;0.20;0.10;;;;;;;5.14;100.00;99698.22;5039666;28;20504;-51
2021/12/07 06:23:41;;;;;;;0.20;0.10;;;;;;;5.22;100.00;99708.66;5054080;28;21017;-48
2021/12/07 06:26:08;;;;;;;0.20;0.10;;;;;;;5.10;100.00;99703.56;5054031;28;20556;-48
2021/12/07 06:28:35;;;;;;;0.20;0.10;;;;;;;5.07;100.00;99709.75;5054091;28;20521;-48
2021/12/07 06:31:02;;;;;;;0.20;0.13;;;;;;;5.03;100.00;99721.22;5054076;28;21004;-48
2021/12/07 06:33:28;;;;;;;0.20;0.10;;;;;;;4.96;100.00;99724.88;5053881;28;20447;-48
2021/12/07 06:35:59;;;;;;;0.20;0.10;;;;;;;5.17;100.00;99735.06;5047797;28;20443;-48
2021/12/07 06:38:29;;;;;;;0.20;0.10;;;;;;;4.90;100.00;99741.59;5047270;28;20849;-48
2021/12/07 06:40:57;;;;;;;0.20;0.10;;;;;;;4.96;100.00;99743.28;5054212;28;20447;-48
2021/12/07 06:43:23;;;;;;;0.20;0.10;;;;;;;4.96;100.00;99757.34;5040579;28;20456;-48
2021/12/07 06:45:51;;;;;;;0.20;0.10;;;;;;;4.95;100.00;99755.59;5053773;28;20927;-48
2021/12/07 06:48:18;;;;;;;0.20;0.10;;;;;;;5.02;100.00;99761.63;5052569;28;21024;-49
2021/12/07 06:50:45;;;;;;;0.20;0.10;;;;;;;4.94;100.00;99755.63;5041726;28;20481;-48
2021/12/07 06:53:11;;;;;;;0.20;0.10;;;;;;;5.08;100.00;99776.50;5053989;28;20450;-48
2021/12/07 06:55:38;;;;;;;0.20;0.10;;;;;;;4.91;100.00;99776.69;5053917;28;20499;-48
2021/12/07 06:58:05;;;;;;;0.20;0.10;;;;;;;5.03;100.00;99771.25;5053468;28;20447;-48
2021/12/07 07:00:33;;;;;;;0.20;0.10;;;;;;;5.04;100.00;99788.81;5053721;28;20470;-48
2021/12/07 07:03:00;;;;;;;0.20;0.10;;;;;;;5.04;100.00;99778.28;5053520;28;20455;-48
2021/12/07 07:05:27;;;;;;;0.20;0.10;;;;;;;4.88;100.00;99784.66;5053452;28;20454;-48
2021/12/07 07:07:53;;;;;;;0.20;0.10;;;;;;;4.94;100.00;99782.81;5053670;28;20490;-48
2021/12/07 07:10:20;;;;;;;0.30;0.10;;;;;;;5.00;100.00;99785.34;5053506;28;20470;-49
2021/12/07 07:12:47;;;;;;;0.20;0.10;;;;;;;4.89;100.00;99786.38;5053156;28;20481;-49
2021/12/07 07:15:15;;;;;;;0.20;0.10;;;;;;;4.96;100.00;99793.31;5053383;28;20451;-49
2021/12/07 07:17:42;;;;;;;0.20;0.10;;;;;;;4.92;100.00;99791.59;5053028;28;20868;-49
2021/12/07 07:20:13;;;;;;;0.20;0.10;;;;;;;4.79;100.00;99803.19;5043024;28;20638;-48
2021/12/07 07:22:40;;;;;;;0.20;0.10;;;;;;;4.83;100.00;99808.44;5050805;28;20439;-49
2021/12/07 07:25:09;;;;;;;0.20;0.10;;;;;;;4.70;100.00;99801.56;5053098;28;20451;-49
2021/12/07 07:27:36;;;;;;;0.20;0.10;;;;;;;4.55;100.00;99817.56;5052912;28;20526;-49
2021/12/07 07:30:05;;;;;;;0.20;0.10;;;;;;;4.29;100.00;99812.59;5052937;28;20544;-49
2021/12/07 07:32:32;;;;;;;0.20;0.10;;;;;;;3.94;100.00;99813.81;5052446;28;20446;-49
2021/12/07 07:34:59;;;;;;;0.20;0.20;;;;;;;3.90;100.00;99830.50;5052424;28;20446;-48
2021/12/07 07:37:25;;;;;;;0.20;0.10;;;;;;;3.85;100.00;99846.31;5039534;28;20571;-49
2021/12/07 07:39:52;;;;;;;0.20;0.10;;;;;;;3.96;100.00;99847.97;5052792;28;20482;-49
2021/12/07 07:42:18;;;;;;;0.20;0.10;;;;;;;3.97;100.00;99849.69;5048141;28;20506;-49
2021/12/07 07:44:45;;;;;;;0.20;0.10;;;;;;;3.87;100.00;99848.94;5044311;28;20451;-49
2021/12/07 07:47:12;;;;;;;0.20;0.10;;;;;;;3.88;100.00;99852.44;5052470;28;20490;-49
2021/12/07 07:49:38;;;;;;;0.20;0.10;;;;;;;3.93;100.00;99840.13;5041112;28;20472;-61
2021/12/07 07:52:05;;;;;;;0.20;0.10;;;;;;;4.15;100.00;99850.44;5050821;28;20447;-49
2021/12/07 07:54:32;;;;;;;0.20;0.10;;;;;;;4.41;100.00;99862.44;5052635;28;20493;-49
2021/12/07 07:56:59;;;;;;;0.20;0.13;;;;;;;4.60;100.00;99857.84;5052411;28;20455;-49
2021/12/07 07:59:25;;;;;;;0.20;0.10;;;;;;;4.55;100.00;99855.28;5052533;28;20474;-49
2021/12/07 08:01:52;;;;;;;0.20;0.10;;;;;;;4.65;100.00;99851.63;5052295;28;20497;-49
2021/12/07 08:04:19;;;;;;;0.20;0.10;;;;;;;4.64;100.00;99859.53;5052230;28;20447;-48
2021/12/07 08:06:46;;;;;;;0.20;0.10;;;;;;;4.59;100.00;99858.72;5052388;28;20454;-49
2021/12/07 08:09:13;;;;;;;0.20;0.10;;;;;;;4.75;100.00;99863.78;5052679;28;20504;-48
2021/12/07 08:11:40;;;;;;;0.20;0.10;;;;;;;4.65;100.00;99871.81;5052164;28;20447;-49
2021/12/07 08:14:06;;;;;;;0.20;0.10;;;;;;;4.61;100.00;99870.09;5052330;28;20509;-48
2021/12/07 08:16:33;;;;;;;0.20;0.17;;;;;;;4.54;100.00;99866.69;5052385;28;20458;-49
2021/12/07 08:19:01;;;;;;;0.20;0.10;;;;;;;4.47;100.00;99863.25;5052211;28;21015;-49
2021/12/07 08:21:28;;;;;;;0.20;0.10;;;;;;;4.54;100.00;99861.44;5039048;28;20538;-49
2021/12/07 08:23:55;;;;;;;0.20;0.10;;;;;;;4.43;100.00;99858.91;5052303;28;20450;-49
2021/12/07 08:26:23;;;;;;;0.20;0.13;;;;;;;4.40;100.00;99872.09;5052145;28;20958;-49
2021/12/07 08:28:52;;;;;;;0.20;0.10;;;;;;;4.46;100.00;99874.66;5051948;28;20552;-48
2021/12/07 08:31:19;;;;;;;0.27;0.17;;;;;;;4.36;100.00;99877.38;5052489;28;20454;-49
2021/12/07 08:33:46;;;;;;;0.20;0.10;;;;;;;4.32;100.00;99875.69;5052288;28;20477;-49
2021/12/07 08:36:13;;;;;;;0.20;0.10;;;;;;;4.31;100.00;99880.06;5044262;28;20447;-49
2021/12/07 08:38:41;;;;;;;0.20;0.10;;;;;;;4.39;100.00;99880.00;5046752;28;20478;-48
2021/12/07 08:41:08;;;;;;;0.20;0.10;;;;;;;4.52;100.00;99881.59;5052291;28;20448;-48
2021/12/07 08:43:38;;;;;;;0.20;0.10;;;;;;;4.58;100.00;99880.69;5038504;28;20502;-49
2021/12/07 08:46:06;;;;;;;0.30;0.20;;;;;;;4.69;100.00;99882.31;5056171;28;20500;-49
2021/12/07 08:48:36;;;;;;;0.27;0.20;;;;;;;4.67;100.00;99884.09;5053674;28;20526;-49
2021/12/07 08:51:06;;;;;;;0.20;0.10;;;;;;;4.79;100.00;99888.31;5045638;28;20864;-49
2021/12/07 08:53:35;;;;;;;0.20;0.10;;;;;;;4.73;100.00;99886.63;5056096;28;20455;-49
2021/12/07 09:01:34;;;;;;;0.20;0.10;;;;;;;5.14;100.00;99889.66;5055962;28;20876;-50
2021/12/07 09:04:03;;;;;;;0.20;0.20;;;;;;;5.11;100.00;99889.69;5056039;28;20482;-50
2021/12/07 09:06:30;;;;;;;0.20;0.10;;;;;;;5.28;100.00;99892.97;5055676;28;20484;-50
2021/12/07 09:08:57;;;;;;;0.20;0.10;;;;;;;5.48;100.00;99890.03;5056009;28;20490;-49
2021/12/07 09:11:25;;;;;;;0.20;0.10;;;;;;;5.55;100.00;99897.84;5055768;28;20447;-50
2021/12/07 09:13:52;;;;;;;0.20;0.10;;;;;;;5.88;100.00;99903.50;5055562;28;20446;-50
2021/12/07 09:16:21;;;;;;;0.20;0.10;;;;;;;5.93;100.00;99899.94;5055752;28;20772;-49
2021/12/07 09:18:48;;;;;;;0.20;0.10;;;;;;;5.77;100.00;99901.06;5054317;28;20466;-50
2021/12/07 09:21:17;;;;;;;0.20;0.10;;;;;;;5.72;100.00;99909.91;5042254;28;20450;-50
2021/12/07 09:23:44;;;;;;;0.20;0.10;;;;;;;5.86;100.00;99916.72;5055635;28;20512;-50
2021/12/07 09:26:11;;;;;;;0.20;0.10;;;;;;;5.93;100.00;99922.81;5055411;28;20528;-49
2021/12/07 09:28:39;;;;;;;0.20;0.13;;;;;;;5.88;100.00;99932.50;5055397;28;20617;-50
2021/12/07 09:31:07;;;;;;;0.20;0.10;;;;;;;6.07;100.00;99925.25;5055361;28;20516;-50
2021/12/07 09:33:35;;;;;;;0.20;0.10;;;;;;;6.01;100.00;99934.09;5055321;28;20500;-49
2021/12/07 09:36:04;;;;;;;0.20;0.13;;;;;;;6.15;100.00;99940.03;5035509;28;20873;-49
2021/12/07 09:38:32;;;;;;;0.20;0.10;;;;;;;6.04;100.00;99933.22;5049106;28;20446;-50
2021/12/07 09:41:00;;;;;;;0.20;0.20;;;;;;;6.20;100.00;99940.84;5055608;28;20455;-50
2021/12/07 09:43:26;;;;;;;0.20;0.10;;;;;;;6.10;100.00;99939.25;5041953;28;20502;-49
2021/12/07 09:45:53;;;;;;;0.20;0.10;;;;;;;6.17;100.00;99930.34;5055353;28;20508;-49
2021/12/07 09:48:20;;;;;;;0.20;0.10;;;;;;;6.08;100.00;99938.41;5053506;28;20494;-50
2021/12/07 09:50:50;;;;;;;0.20;0.13;;;;;;;5.92;100.00;99932.50;5043113;28;20454;-50
2021/12/07 09:53:18;;;;;;;0.20;0.20;;;;;;;6.13;100.00;99930.41;5054943;28;20959;-50
2021/12/07 09:55:47;;;;;;;0.20;0.10;;;;;;;6.27;100.00;99922.25;5054937;28;20477;-50
2021/12/07 09:58:14;;;;;;;0.20;0.10;;;;;;;6.03;100.00;99918.25;5054881;28;20447;-50
2021/12/07 10:00:42;;;;;;;0.20;0.10;;;;;;;6.33;100.00;99909.84;5055203;28;20451;-50
2021/12/07 10:03:09;;;;;;;0.20;0.10;;;;;;;6.53;99.41;99902.41;5055139;28;20447;-50
2021/12/07 10:05:36;;;;;;;0.20;0.20;;;;;;;6.49;98.76;99899.88;5054843;28;20827;-50
2021/12/07 10:08:04;;;;;;;0.20;0.10;;;;;;;6.46;99.31;99898.16;5054861;28;20486;-50
2021/12/07 10:10:36;;;;;;;0.20;0.20;;;;;;;6.36;100.00;99893.06;5054657;28;20470;-50
2021/12/07 10:13:03;;;;;;;0.40;0.40;;;;;;;6.38;98.46;99893.91;5054513;28;20451;-49
2021/12/07 10:15:30;;;;;;;0.20;0.20;;;;;;;6.46;98.29;99900.81;5054634;28;20454;-49
2021/12/07 10:18:01;;;;;;;0.20;0.10;;;;;;;6.42;98.36;99904.38;5054898;28;20447;-50
2021/12/07 10:20:43;;;;;;;0.20;0.17;;;;;;;6.61;97.71;99901.41;5041180;28;20993;-48
2021/12/07 10:23:16;;;;;;;0.20;0.13;;;;;;;6.86;96.56;99901.81;5054557;28;20475;-49
2021/12/07 10:25:47;;;;;;;0.20;0.20;;;;;;;6.90;95.90;99890.28;5054063;28;20532;-49
2021/12/07 10:28:35;;;;;;;0.20;0.10;;;;;;;6.54;94.74;99895.38;5054040;28;20513;-49
2021/12/07 10:31:10;;;;;;;0.20;0.20;;;;;;;6.88;94.61;99898.25;5054338;28;20443;-50
2021/12/07 10:33:44;;;;;;;0.20;0.20;;;;;;;6.93;93.02;99887.56;5052963;28;20496;-49
2021/12/07 10:36:17;;;;;;;0.20;0.17;;;;;;;6.89;92.06;99883.25;5046346;28;20452;-49
2021/12/07 10:38:58;;;;;;;0.20;0.10;;;;;;;6.72;92.87;99896.81;5049381;28;20478;-49
2021/12/07 10:41:26;;;;;;;0.20;0.10;;;;;;;6.76;93.77;99891.44;5054022;28;20446;-50
2021/12/07 10:44:20;;;;;;;0.20;0.20;;;;;;;6.66;93.17;99884.56;5040763;28;20534;-49
2021/12/07 10:46:59;;;;;;;0.20;0.20;;;;;;;6.66;92.08;99894.28;5052040;28;20532;-49
2021/12/07 10:49:42;;;;;;;0.20;0.10;;;;;;;6.70;92.07;99875.69;5043265;28;20498;-50
2021/12/07 10:52:28;;;;;;;0.20;0.20;;;;;;;6.75;92.26;99888.81;5053081;28;20446;-49
2021/12/07 10:55:04;;;;;;;0.20;0.20;;;;;;;6.84;92.38;99883.34;5053773;28;20439;-50
2021/12/07 10:57:38;;;;;;;0.20;0.10;;;;;;;6.94;93.33;99881.38;5053938;28;20504;-50
2021/12/07 11:00:15;;;;;;;0.20;0.20;;;;;;;6.81;92.01;99886.91;5053654;28;20466;-50
2021/12/07 11:02:46;;;;;;;0.20;0.10;;;;;;;6.93;90.71;99869.94;5053485;28;20451;-50
2021/12/07 11:05:43;;;;;;;0.20;0.17;;;;;;;7.07;89.97;99875.81;5053452;28;20924;-50
2021/12/07 11:08:11;;;;;;;2.97;0.80;;;;;;;6.94;90.09;99879.63;5052888;28;20555;-50
2021/12/07 11:10:45;;;;;;;0.20;0.20;;;;;;;7.16;88.69;99885.34;5053213;28;20474;-50
2021/12/07 11:13:25;;;;;;;0.20;0.20;;;;;;;7.10;88.00;99874.88;5053278;28;20561;-49
2021/12/07 11:16:06;;;;;;;0.30;0.20;;;;;;;7.07;88.99;99878.47;5053761;28;20446;-49
2021/12/07 11:18:39;;;;;;;0.20;0.20;;;;;;;7.07;89.08;99873.19;5053070;28;20812;-50
2021/12/07 11:21:11;;;;;;;0.20;0.20;;;;;;;7.15;88.76;99880.97;5040006;28;20450;-50
2021/12/07 11:23:45;;;;;;;0.20;0.10;;;;;;;6.98;87.56;99872.47;5053259;28;20443;-50
2021/12/07 11:31:45;;;;;;;0.20;0.20;;;;;;;7.22;87.40;99853.47;5053042;28;20985;-50
2021/12/07 11:34:24;;;;;;;0.20;0.20;;;;;;;7.20;87.60;99855.28;5052623;28;20935;-50
2021/12/07 11:37:11;;;;;;;0.20;0.20;;;;;;;7.21;87.56;99853.50;5039681;28;20448;-49
2021/12/07 11:39:54;;;;;;;0.20;0.20;;;;;;;7.23;88.01;99854.34;5053318;28;20957;-47
2021/12/07 11:42:23;;;;;;;0.20;0.10;;;;;;;7.33;87.50;99845.31;5047168;28;20501;-47
2021/12/07 11:44:56;;;;;;;0.20;0.10;;;;;;;7.39;88.76;99830.16;5045220;28;20458;-47
2021/12/07 11:47:45;;;;;;;0.20;0.10;;;;;;;7.38;89.44;99836.34;5053140;28;20439;-47
2021/12/07 11:50:24;;;;;;;0.20;0.20;;;;;;;7.23;88.39;99826.13;5036100;28;20520;-47
2021/12/07 11:52:55;;;;;;;0.20;0.20;;;;;;;7.29;89.17;99826.00;5052585;28;20443;-47
2021/12/07 11:55:22;;;;;;;0.20;0.20;;;;;;;7.28;89.92;99820.75;5067674;28;20445;-47
2021/12/07 11:57:50;;;;;;;0.23;0.20;;;;;;;7.58;87.67;99819.16;5052472;28;20454;-47
2021/12/07 12:00:21;;;;;;;0.20;0.20;;;;;;;7.31;90.24;99816.25;5052561;28;20475;-47
2021/12/07 12:02:48;;;;;;;0.20;0.20;;;;;;;7.32;89.06;99803.91;5052490;28;20447;-48
2021/12/07 12:05:16;;;;;;;0.30;0.20;;;;;;;7.52;87.59;99801.66;5052644;28;20457;-47
2021/12/07 12:07:48;;;;;;;0.20;0.10;;;;;;;7.55;87.84;99803.38;5052383;28;20509;-47
2021/12/07 12:10:17;;;;;;;0.20;0.20;;;;;;;7.40;88.98;99800.19;5052562;28;20470;-47
2021/12/07 12:13:32;;;;;;;0.20;0.20;;;;;;;7.33;88.75;99798.59;5052519;28;20880;-48
2021/12/07 12:16:11;;;;;;;0.20;0.20;;;;;;;7.58;87.80;99787.44;5020962;28;20469;-47
2021/12/07 12:19:08;;;;;;;0.30;0.20;;;;;;;7.57;86.79;99781.28;5051566;28;20467;-47
2021/12/07 12:21:47;;;;;;;0.20;0.20;;;;;;;7.58;85.69;99775.06;5040578;28;20948;-47
2021/12/07 12:24:40;;;;;;;0.20;0.10;;;;;;;7.53;87.19;99773.44;5052101;28;20944;-47
2021/12/07 12:27:20;;;;;;;0.20;0.20;;;;;;;7.65;87.13;99774.00;5051271;28;20809;-47
2021/12/07 12:29:50;;;;;;;0.20;0.20;;;;;;;7.49;86.49;99771.78;5052235;28;20494;-46
2021/12/07 12:32:43;;;;;;;0.20;0.10;;;;;;;7.51;86.16;99775.25;5052064;28;20924;-48
2021/12/07 12:35:12;;;;;;;0.30;0.20;;;;;;;7.40;86.96;99764.94;5052076;28;20940;-47
2021/12/07 12:37:48;;;;;;;0.60;0.60;;;;;;;7.48;87.66;99772.69;5039156;28;20509;-48
2021/12/07 12:40:21;;;;;;;0.20;0.10;;;;;;;7.30;87.03;99776.66;5051922;28;20856;-47
2021/12/07 12:42:51;;;;;;;0.20;0.10;;;;;;;7.36;86.15;99764.13;5043221;28;20451;-47
2021/12/07 12:45:27;;;;;;;0.20;0.20;;;;;;;7.76;84.91;99757.88;5048492;28;20443;-47
2021/12/07 12:47:57;;;;;;;0.20;0.10;;;;;;;7.47;85.55;99761.25;5052179;28;20503;-47
2021/12/07 12:50:30;;;;;;;0.20;0.10;;;;;;;7.67;86.02;99755.44;5038685;28;20494;-47
2021/12/07 12:53:00;;;;;;;0.20;0.10;;;;;;;7.71;85.65;99757.13;5052041;28;20447;-47
2021/12/07 12:55:34;;;;;;;0.20;0.20;;;;;;;7.48;86.24;99754.19;5051713;28;20490;-47
2021/12/07 12:58:12;;;;;;;0.27;0.20;;;;;;;7.56;86.82;99747.81;5052038;28;20446;-47
2021/12/07 13:01:04;;;;;;;0.20;0.20;;;;;;;7.93;86.48;99752.13;5052016;28;20481;-47
2021/12/07 13:03:46;;;;;;;0.20;0.20;;;;;;;7.48;88.12;99740.97;5051654;28;20450;-47
2021/12/07 13:06:43;;;;;;;0.30;0.20;;;;;;;7.43;88.17;99738.44;5051673;28;20450;-46
2021/12/07 13:09:20;;;;;;;0.20;0.20;;;;;;;7.48;88.71;99733.88;5051695;28;20582;-47
2021/12/07 13:12:09;;;;;;;0.30;0.20;;;;;;;7.46;87.97;99725.13;5031849;28;20827;-47
2021/12/07 13:14:41;;;;;;;0.20;0.20;;;;;;;7.64;87.83;99721.16;5048740;28;20796;-47
2021/12/07 13:17:14;;;;;;;0.30;0.20;;;;;;;7.32;88.58;99722.84;5051677;28;20504;-47
2021/12/07 13:20:14;;;;;;;0.30;0.20;;;;;;;7.19;90.65;99721.41;5046153;28;20464;-47
2021/12/07 13:22:49;;;;;;;0.30;0.20;;;;;;;7.26;90.90;99717.69;5048454;28;20801;-46
2021/12/07 13:25:28;;;;;;;0.20;0.20;;;;;;;7.23;90.44;99717.75;5051740;28;20814;-47
2021/12/07 13:28:04;;;;;;;0.30;0.20;;;;;;;7.27;91.73;99706.22;5051468;28;20443;-47
2021/12/07 13:30:50;;;;;;;0.30;0.20;;;;;;;7.30;90.39;99707.91;5052602;28;20552;-47
2021/12/07 13:33:35;;;;;;;0.30;0.20;;;;;;;7.31;91.10;99701.72;5055395;28;20504;-49
2021/12/07 13:36:34;;;;;;;0.20;0.20;;;;;;;7.31;91.55;99699.09;5035491;28;20451;-47
2021/12/07 13:39:10;;;;;;;0.30;0.20;;;;;;;7.19;91.98;99700.25;5050839;28;20479;-47
2021/12/07 13:42:11;;;;;;;0.30;0.20;;;;;;;7.36;92.58;99698.03;5055143;28;20442;-48